sensor_id;sensor_type;location;lat;lon;timestamp;temperature;humidity
4615;DHT22;2320;51.362;6.946;2024-02-21T00:01:39;9.80;99.90
4615;DHT22;2320;51.362;6.946;2024-02-21T00:04:05;9.80;99.90
4615;DHT22;2320;51.362;6.946;2024-02-21T00:06:31;9.80;99.90
4615;DHT22;2320;51.362;6.946;2024-02-21T00:08:57;9.80;99.90
4615;DHT22;2320;51.362;6.946;2024-02-21T00:11:22;9.80;99.90
4615;DHT22;2320;51.362;6.946;2024-02-21T00:13:48;9.80;99.90
4615;DHT22;2320;51.362;6.946;2024-02-21T00:16:13;9.90;99.90
4615;DHT22;2320;51.362;6.946;2024-02-21T00:18:41;9.90;99.90
4615;DHT22;2320;51.362;6.946;2024-02-21T00:21:06;9.90;99.90
4615;DHT22;2320;51.362;6.946;2024-02-21T00:23:32;9.90;99.90
4615;DHT22;2320;51.362;6.946;2024-02-21T00:25:57;9.90;99.90
4615;DHT22;2320;51.362;6.946;2024-02-21T00:28:23;9.90;99.90
4615;DHT22;2320;51.362;6.946;2024-02-21T00:30:48;9.90;99.90
4615;DHT22;2320;51.362;6.946;2024-02-21T00:33:18;9.90;99.90
4615;DHT22;2320;51.362;6.946;2024-02-21T00:35:44;9.90;99.90
4615;DHT22;2320;51.362;6.946;2024-02-21T00:38:10;9.90;99.90
4615;DHT22;2320;51.362;6.946;2024-02-21T00:40:35;9.90;99.90
4615;DHT22;2320;51.362;6.946;2024-02-21T00:43:01;9.90;99.90
4615;DHT22;2320;51.362;6.946;2024-02-21T00:45:26;9.90;99.90
4615;DHT22;2320;51.362;6.946;2024-02-21T00:47:52;9.80;99.90
4615;DHT22;2320;51.362;6.946;2024-02-21T00:50:17;9.90;99.90
4615;DHT22;2320;51.362;6.946;2024-02-21T00:52:43;10.00;99.90
4615;DHT22;2320;51.362;6.946;2024-02-21T00:55:09;9.90;99.90
4615;DHT22;2320;51.362;6.946;2024-02-21T00:57:35;9.90;99.90
4615;DHT22;2320;51.362;6.946;2024-02-21T01:00:02;9.80;99.90
4615;DHT22;2320;51.362;6.946;2024-02-21T01:02:28;9.80;99.90
4615;DHT22;2320;51.362;6.946;2024-02-21T01:04:53;9.80;99.90
4615;DHT22;2320;51.362;6.946;2024-02-21T01:07:19;9.80;99.90
4615;DHT22;2320;51.362;6.946;2024-02-21T01:09:44;9.80;99.90
4615;DHT22;2320;51.362;6.946;2024-02-21T01:12:10;9.80;99.90
4615;DHT22;2320;51.362;6.946;2024-02-21T01:14:35;9.80;99.90
4615;DHT22;2320;51.362;6.946;2024-02-21T01:17:01;9.90;99.90
4615;DHT22;2320;51.362;6.946;2024-02-21T01:19:26;9.90;99.90
4615;DHT22;2320;51.362;6.946;2024-02-21T01:21:52;10.00;99.90
4615;DHT22;2320;51.362;6.946;2024-02-21T01:24:18;9.90;99.90
4615;DHT22;2320;51.362;6.946;2024-02-21T01:26:43;9.90;99.90
4615;DHT22;2320;51.362;6.946;2024-02-21T01:29:09;9.80;99.90
4615;DHT22;2320;51.362;6.946;2024-02-21T01:31:34;9.80;99.90
4615;DHT22;2320;51.362;6.946;2024-02-21T01:34:00;9.80;99.90
4615;DHT22;2320;51.362;6.946;2024-02-21T01:36:26;9.80;99.90
4615;DHT22;2320;51.362;6.946;2024-02-21T01:38:51;9.70;99.90
4615;DHT22;2320;51.362;6.946;2024-02-21T01:41:17;9.80;99.90
4615;DHT22;2320;51.362;6.946;2024-02-21T01:43:42;9.80;99.90
4615;DHT22;2320;51.362;6.946;2024-02-21T01:46:08;9.90;99.90
4615;DHT22;2320;51.362;6.946;2024-02-21T01:48:34;9.90;99.90
4615;DHT22;2320;51.362;6.946;2024-02-21T01:51:00;9.90;99.90
4615;DHT22;2320;51.362;6.946;2024-02-21T01:53:30;9.80;99.90
4615;DHT22;2320;51.362;6.946;2024-02-21T01:55:58;9.80;99.90
4615;DHT22;2320;51.362;6.946;2024-02-21T01:58:24;9.80;99.90
4615;DHT22;2320;51.362;6.946;2024-02-21T02:00:50;9.70;99.90
4615;DHT22;2320;51.362;6.946;2024-02-21T02:03:16;9.70;99.90
4615;DHT22;2320;51.362;6.946;2024-02-21T02:05:45;9.80;99.90
4615;DHT22;2320;51.362;6.946;2024-02-21T02:08:19;9.80;99.90
4615;DHT22;2320;51.362;6.946;2024-02-21T02:10:45;9.80;99.90
4615;DHT22;2320;51.362;6.946;2024-02-21T02:13:11;9.80;99.90
4615;DHT22;2320;51.362;6.946;2024-02-21T02:15:44;9.80;99.90
4615;DHT22;2320;51.362;6.946;2024-02-21T02:18:11;9.80;99.90
4615;DHT22;2320;51.362;6.946;2024-02-21T02:20:37;9.80;99.90
4615;DHT22;2320;51.362;6.946;2024-02-21T02:23:27;9.70;99.90
4615;DHT22;2320;51.362;6.946;2024-02-21T02:25:54;9.70;99.90
4615;DHT22;2320;51.362;6.946;2024-02-21T02:28:20;9.70;99.90
4615;DHT22;2320;51.362;6.946;2024-02-21T02:30:46;9.70;99.90
4615;DHT22;2320;51.362;6.946;2024-02-21T02:33:12;9.70;99.90
4615;DHT22;2320;51.362;6.946;2024-02-21T02:35:38;9.70;99.90
4615;DHT22;2320;51.362;6.946;2024-02-21T02:38:04;9.70;99.90
4615;DHT22;2320;51.362;6.946;2024-02-21T02:40:33;9.80;99.90
4615;DHT22;2320;51.362;6.946;2024-02-21T02:42:59;9.80;99.90
4615;DHT22;2320;51.362;6.946;2024-02-21T02:45:24;9.80;99.90
4615;DHT22;2320;51.362;6.946;2024-02-21T02:47:52;9.70;99.90
4615;DHT22;2320;51.362;6.946;2024-02-21T02:50:17;9.70;99.90
4615;DHT22;2320;51.362;6.946;2024-02-21T02:52:43;9.70;99.90
4615;DHT22;2320;51.362;6.946;2024-02-21T02:55:08;9.60;99.90
4615;DHT22;2320;51.362;6.946;2024-02-21T02:57:34;9.60;99.90
4615;DHT22;2320;51.362;6.946;2024-02-21T03:00:00;9.60;99.90
4615;DHT22;2320;51.362;6.946;2024-02-21T03:02:25;9.60;99.90
4615;DHT22;2320;51.362;6.946;2024-02-21T03:04:51;9.60;99.90
4615;DHT22;2320;51.362;6.946;2024-02-21T03:07:16;9.60;99.90
4615;DHT22;2320;51.362;6.946;2024-02-21T03:09:42;9.50;99.90
4615;DHT22;2320;51.362;6.946;2024-02-21T03:12:11;9.50;99.90
4615;DHT22;2320;51.362;6.946;2024-02-21T03:14:37;9.40;99.90
4615;DHT22;2320;51.362;6.946;2024-02-21T03:17:03;9.50;99.90
4615;DHT22;2320;51.362;6.946;2024-02-21T03:19:29;9.60;99.90
4615;DHT22;2320;51.362;6.946;2024-02-21T03:21:55;9.50;99.90
4615;DHT22;2320;51.362;6.946;2024-02-21T03:24:21;9.50;99.90
4615;DHT22;2320;51.362;6.946;2024-02-21T03:26:47;9.50;99.90
4615;DHT22;2320;51.362;6.946;2024-02-21T03:29:15;9.50;99.90
4615;DHT22;2320;51.362;6.946;2024-02-21T03:31:41;9.40;99.90
4615;DHT22;2320;51.362;6.946;2024-02-21T03:34:07;9.40;99.90
4615;DHT22;2320;51.362;6.946;2024-02-21T03:36:32;9.40;99.90
4615;DHT22;2320;51.362;6.946;2024-02-21T03:38:58;9.40;99.90
4615;DHT22;2320;51.362;6.946;2024-02-21T03:41:23;9.40;99.90
4615;DHT22;2320;51.362;6.946;2024-02-21T03:43:49;9.40;99.90
4615;DHT22;2320;51.362;6.946;2024-02-21T03:46:15;9.40;99.90
4615;DHT22;2320;51.362;6.946;2024-02-21T03:48:41;9.40;99.90
4615;DHT22;2320;51.362;6.946;2024-02-21T03:51:06;9.40;99.90
4615;DHT22;2320;51.362;6.946;2024-02-21T03:53:32;9.40;99.90
4615;DHT22;2320;51.362;6.946;2024-02-21T03:56:01;9.40;99.90
4615;DHT22;2320;51.362;6.946;2024-02-21T03:58:28;9.50;99.90
4615;DHT22;2320;51.362;6.946;2024-02-21T04:00:54;9.50;99.90
4615;DHT22;2320;51.362;6.946;2024-02-21T04:03:19;9.50;99.90
4615;DHT22;2320;51.362;6.946;2024-02-21T04:05:45;9.50;99.90
4615;DHT22;2320;51.362;6.946;2024-02-21T04:08:11;9.60;99.90
4615;DHT22;2320;51.362;6.946;2024-02-21T04:10:37;9.60;99.90
4615;DHT22;2320;51.362;6.946;2024-02-21T04:13:05;9.60;99.90
4615;DHT22;2320;51.362;6.946;2024-02-21T04:15:31;9.50;99.90
4615;DHT22;2320;51.362;6.946;2024-02-21T04:17:57;9.60;99.90
4615;DHT22;2320;51.362;6.946;2024-02-21T04:20:22;9.60;99.90
4615;DHT22;2320;51.362;6.946;2024-02-21T04:22:48;9.60;99.90
4615;DHT22;2320;51.362;6.946;2024-02-21T04:25:14;9.60;99.90
4615;DHT22;2320;51.362;6.946;2024-02-21T04:27:40;9.70;99.90
4615;DHT22;2320;51.362;6.946;2024-02-21T04:30:06;9.70;99.90
4615;DHT22;2320;51.362;6.946;2024-02-21T04:32:32;9.60;99.90
4615;DHT22;2320;51.362;6.946;2024-02-21T04:34:58;9.70;99.90
4615;DHT22;2320;51.362;6.946;2024-02-21T04:37:24;9.70;99.90
4615;DHT22;2320;51.362;6.946;2024-02-21T04:39:50;9.70;99.90
4615;DHT22;2320;51.362;6.946;2024-02-21T04:42:15;9.70;99.90
4615;DHT22;2320;51.362;6.946;2024-02-21T04:44:41;9.60;99.90
4615;DHT22;2320;51.362;6.946;2024-02-21T04:47:07;9.70;99.90
4615;DHT22;2320;51.362;6.946;2024-02-21T04:49:32;9.70;99.90
4615;DHT22;2320;51.362;6.946;2024-02-21T04:51:58;9.70;99.90
4615;DHT22;2320;51.362;6.946;2024-02-21T04:54:24;9.70;99.90
4615;DHT22;2320;51.362;6.946;2024-02-21T04:56:50;9.70;99.90
4615;DHT22;2320;51.362;6.946;2024-02-21T04:59:15;9.70;99.90
4615;DHT22;2320;51.362;6.946;2024-02-21T05:01:41;9.80;99.90
4615;DHT22;2320;51.362;6.946;2024-02-21T05:04:07;9.80;99.90
4615;DHT22;2320;51.362;6.946;2024-02-21T05:06:36;9.80;99.90
4615;DHT22;2320;51.362;6.946;2024-02-21T05:09:02;9.80;99.90
4615;DHT22;2320;51.362;6.946;2024-02-21T05:11:28;9.80;99.90
4615;DHT22;2320;51.362;6.946;2024-02-21T05:13:54;9.70;99.90
4615;DHT22;2320;51.362;6.946;2024-02-21T05:16:19;9.60;99.90
4615;DHT22;2320;51.362;6.946;2024-02-21T05:18:45;9.60;99.90
4615;DHT22;2320;51.362;6.946;2024-02-21T05:21:10;9.60;99.90
4615;DHT22;2320;51.362;6.946;2024-02-21T05:23:36;9.70;99.90
4615;DHT22;2320;51.362;6.946;2024-02-21T05:26:01;9.70;99.90
4615;DHT22;2320;51.362;6.946;2024-02-21T05:28:27;9.70;99.90
4615;DHT22;2320;51.362;6.946;2024-02-21T05:30:52;9.70;99.90
4615;DHT22;2320;51.362;6.946;2024-02-21T05:33:18;9.70;99.90
4615;DHT22;2320;51.362;6.946;2024-02-21T05:35:47;9.70;99.90
4615;DHT22;2320;51.362;6.946;2024-02-21T05:38:14;9.70;99.90
4615;DHT22;2320;51.362;6.946;2024-02-21T05:40:40;9.70;99.90
4615;DHT22;2320;51.362;6.946;2024-02-21T05:43:07;9.70;99.90
4615;DHT22;2320;51.362;6.946;2024-02-21T05:45:32;9.60;99.90
4615;DHT22;2320;51.362;6.946;2024-02-21T05:47:58;9.60;99.90
4615;DHT22;2320;51.362;6.946;2024-02-21T05:50:23;9.60;99.90
4615;DHT22;2320;51.362;6.946;2024-02-21T05:52:54;9.60;99.90
4615;DHT22;2320;51.362;6.946;2024-02-21T05:55:19;9.70;99.90
4615;DHT22;2320;51.362;6.946;2024-02-21T05:57:45;9.70;99.90
4615;DHT22;2320;51.362;6.946;2024-02-21T06:00:11;9.60;99.90
4615;DHT22;2320;51.362;6.946;2024-02-21T06:02:36;9.60;99.90
4615;DHT22;2320;51.362;6.946;2024-02-21T06:05:02;9.60;99.90
4615;DHT22;2320;51.362;6.946;2024-02-21T06:07:28;9.60;99.90
4615;DHT22;2320;51.362;6.946;2024-02-21T06:09:53;9.60;99.90
4615;DHT22;2320;51.362;6.946;2024-02-21T06:12:19;9.60;99.90
4615;DHT22;2320;51.362;6.946;2024-02-21T06:14:45;9.60;99.90
4615;DHT22;2320;51.362;6.946;2024-02-21T06:17:10;9.60;99.90
4615;DHT22;2320;51.362;6.946;2024-02-21T06:19:40;9.60;99.90
4615;DHT22;2320;51.362;6.946;2024-02-21T06:22:06;9.50;99.90
4615;DHT22;2320;51.362;6.946;2024-02-21T06:24:34;9.60;99.90
4615;DHT22;2320;51.362;6.946;2024-02-21T06:26:59;9.60;99.90
4615;DHT22;2320;51.362;6.946;2024-02-21T06:29:25;9.60;99.90
4615;DHT22;2320;51.362;6.946;2024-02-21T06:31:50;9.60;99.90
4615;DHT22;2320;51.362;6.946;2024-02-21T06:34:16;9.70;99.90
4615;DHT22;2320;51.362;6.946;2024-02-21T06:36:42;9.70;99.90
4615;DHT22;2320;51.362;6.946;2024-02-21T06:39:07;9.70;99.90
4615;DHT22;2320;51.362;6.946;2024-02-21T06:41:33;9.70;99.90
4615;DHT22;2320;51.362;6.946;2024-02-21T06:43:59;9.70;99.90
4615;DHT22;2320;51.362;6.946;2024-02-21T06:46:26;9.70;99.90
4615;DHT22;2320;51.362;6.946;2024-02-21T06:48:52;9.70;99.90
4615;DHT22;2320;51.362;6.946;2024-02-21T06:51:17;9.70;99.90
4615;DHT22;2320;51.362;6.946;2024-02-21T06:53:43;9.70;99.90
4615;DHT22;2320;51.362;6.946;2024-02-21T06:56:10;9.60;99.90
4615;DHT22;2320;51.362;6.946;2024-02-21T06:58:35;9.70;99.90
4615;DHT22;2320;51.362;6.946;2024-02-21T07:01:01;9.70;99.90
4615;DHT22;2320;51.362;6.946;2024-02-21T07:03:27;9.70;99.90
4615;DHT22;2320;51.362;6.946;2024-02-21T07:05:52;9.70;99.90
4615;DHT22;2320;51.362;6.946;2024-02-21T07:08:18;9.70;99.90
4615;DHT22;2320;51.362;6.946;2024-02-21T07:10:44;9.70;99.90
4615;DHT22;2320;51.362;6.946;2024-02-21T07:13:09;9.70;99.90
4615;DHT22;2320;51.362;6.946;2024-02-21T07:15:35;9.80;99.90
4615;DHT22;2320;51.362;6.946;2024-02-21T07:18:02;9.80;99.90
4615;DHT22;2320;51.362;6.946;2024-02-21T07:20:27;9.90;99.90
4615;DHT22;2320;51.362;6.946;2024-02-21T07:22:54;9.90;99.90
4615;DHT22;2320;51.362;6.946;2024-02-21T07:25:19;9.90;99.90
4615;DHT22;2320;51.362;6.946;2024-02-21T07:27:45;9.90;99.90
4615;DHT22;2320;51.362;6.946;2024-02-21T07:30:11;9.90;99.90
4615;DHT22;2320;51.362;6.946;2024-02-21T07:32:37;9.90;99.90
4615;DHT22;2320;51.362;6.946;2024-02-21T07:35:02;9.90;99.90
4615;DHT22;2320;51.362;6.946;2024-02-21T07:37:28;9.90;99.90
4615;DHT22;2320;51.362;6.946;2024-02-21T07:39:53;9.90;99.90
4615;DHT22;2320;51.362;6.946;2024-02-21T07:42:19;9.90;99.90
4615;DHT22;2320;51.362;6.946;2024-02-21T07:44:45;10.00;99.90
4615;DHT22;2320;51.362;6.946;2024-02-21T07:47:11;10.00;99.90
4615;DHT22;2320;51.362;6.946;2024-02-21T07:49:45;9.90;99.90
4615;DHT22;2320;51.362;6.946;2024-02-21T07:52:11;9.90;99.90
4615;DHT22;2320;51.362;6.946;2024-02-21T07:54:37;9.90;99.90
4615;DHT22;2320;51.362;6.946;2024-02-21T07:57:03;10.00;99.90
4615;DHT22;2320;51.362;6.946;2024-02-21T07:59:29;10.00;99.90
4615;DHT22;2320;51.362;6.946;2024-02-21T08:01:58;10.00;99.90
4615;DHT22;2320;51.362;6.946;2024-02-21T08:04:25;10.00;99.90
4615;DHT22;2320;51.362;6.946;2024-02-21T08:06:54;10.10;99.90
4615;DHT22;2320;51.362;6.946;2024-02-21T08:09:22;10.10;99.90
4615;DHT22;2320;51.362;6.946;2024-02-21T08:11:47;10.00;99.90
4615;DHT22;2320;51.362;6.946;2024-02-21T08:14:13;10.10;99.90
4615;DHT22;2320;51.362;6.946;2024-02-21T08:16:41;10.00;99.90
4615;DHT22;2320;51.362;6.946;2024-02-21T08:19:07;10.00;99.90
4615;DHT22;2320;51.362;6.946;2024-02-21T08:21:32;10.10;99.90
4615;DHT22;2320;51.362;6.946;2024-02-21T08:23:58;10.10;99.90
4615;DHT22;2320;51.362;6.946;2024-02-21T08:26:23;10.10;99.90
4615;DHT22;2320;51.362;6.946;2024-02-21T08:28:49;10.20;99.90
4615;DHT22;2320;51.362;6.946;2024-02-21T08:31:19;10.20;99.90
4615;DHT22;2320;51.362;6.946;2024-02-21T08:33:45;10.10;99.90
4615;DHT22;2320;51.362;6.946;2024-02-21T08:36:20;10.20;99.90
4615;DHT22;2320;51.362;6.946;2024-02-21T08:38:46;10.10;99.90
4615;DHT22;2320;51.362;6.946;2024-02-21T08:41:12;10.10;99.90
4615;DHT22;2320;51.362;6.946;2024-02-21T08:43:37;10.10;99.90
4615;DHT22;2320;51.362;6.946;2024-02-21T08:46:04;10.10;99.90
4615;DHT22;2320;51.362;6.946;2024-02-21T08:48:30;10.20;99.90
4615;DHT22;2320;51.362;6.946;2024-02-21T08:50:56;10.20;99.90
4615;DHT22;2320;51.362;6.946;2024-02-21T08:53:22;10.20;99.90
4615;DHT22;2320;51.362;6.946;2024-02-21T08:55:47;10.20;99.90
4615;DHT22;2320;51.362;6.946;2024-02-21T08:58:13;10.10;99.90
4615;DHT22;2320;51.362;6.946;2024-02-21T09:00:40;10.00;99.90
4615;DHT22;2320;51.362;6.946;2024-02-21T09:03:05;10.00;99.90
4615;DHT22;2320;51.362;6.946;2024-02-21T09:05:31;10.00;99.90
4615;DHT22;2320;51.362;6.946;2024-02-21T09:07:57;10.00;99.90
4615;DHT22;2320;51.362;6.946;2024-02-21T09:10:22;10.00;99.90
4615;DHT22;2320;51.362;6.946;2024-02-21T09:12:48;10.00;99.90
4615;DHT22;2320;51.362;6.946;2024-02-21T09:15:13;10.00;99.90
4615;DHT22;2320;51.362;6.946;2024-02-21T09:17:39;9.90;99.90
4615;DHT22;2320;51.362;6.946;2024-02-21T09:20:05;9.90;99.90
4615;DHT22;2320;51.362;6.946;2024-02-21T09:22:31;9.90;99.90
4615;DHT22;2320;51.362;6.946;2024-02-21T09:25:00;9.90;99.90
4615;DHT22;2320;51.362;6.946;2024-02-21T09:27:26;10.00;99.90
4615;DHT22;2320;51.362;6.946;2024-02-21T09:29:51;9.90;99.90
4615;DHT22;2320;51.362;6.946;2024-02-21T09:32:18;9.90;99.90
4615;DHT22;2320;51.362;6.946;2024-02-21T09:34:44;10.10;99.90
4615;DHT22;2320;51.362;6.946;2024-02-21T09:37:10;10.10;99.90
4615;DHT22;2320;51.362;6.946;2024-02-21T09:39:36;10.10;99.90
4615;DHT22;2320;51.362;6.946;2024-02-21T09:42:11;10.10;99.90
4615;DHT22;2320;51.362;6.946;2024-02-21T09:44:37;10.30;99.90
4615;DHT22;2320;51.362;6.946;2024-02-21T09:47:07;10.50;99.90
4615;DHT22;2320;51.362;6.946;2024-02-21T09:49:35;10.50;99.90
4615;DHT22;2320;51.362;6.946;2024-02-21T09:52:07;10.60;99.90
4615;DHT22;2320;51.362;6.946;2024-02-21T09:54:35;10.70;99.90
4615;DHT22;2320;51.362;6.946;2024-02-21T09:57:05;10.80;99.90
4615;DHT22;2320;51.362;6.946;2024-02-21T09:59:32;10.90;99.90
4615;DHT22;2320;51.362;6.946;2024-02-21T10:01:58;10.90;99.90
4615;DHT22;2320;51.362;6.946;2024-02-21T10:04:27;10.80;99.90
4615;DHT22;2320;51.362;6.946;2024-02-21T10:06:56;10.80;99.90
4615;DHT22;2320;51.362;6.946;2024-02-21T10:09:28;10.90;99.90
4615;DHT22;2320;51.362;6.946;2024-02-21T10:11:55;10.90;99.90
4615;DHT22;2320;51.362;6.946;2024-02-21T10:14:20;10.90;99.90
4615;DHT22;2320;51.362;6.946;2024-02-21T10:16:48;11.00;99.90
4615;DHT22;2320;51.362;6.946;2024-02-21T10:19:20;10.90;99.90
4615;DHT22;2320;51.362;6.946;2024-02-21T10:22:05;10.90;99.90
4615;DHT22;2320;51.362;6.946;2024-02-21T10:24:34;11.00;99.90
4615;DHT22;2320;51.362;6.946;2024-02-21T10:27:05;11.00;99.90
4615;DHT22;2320;51.362;6.946;2024-02-21T10:29:34;11.20;99.90
4615;DHT22;2320;51.362;6.946;2024-02-21T10:32:10;11.20;99.90
4615;DHT22;2320;51.362;6.946;2024-02-21T10:34:37;11.10;99.90
4615;DHT22;2320;51.362;6.946;2024-02-21T10:37:04;11.00;99.90
4615;DHT22;2320;51.362;6.946;2024-02-21T10:39:32;11.10;99.90
4615;DHT22;2320;51.362;6.946;2024-02-21T10:42:00;11.20;99.90
4615;DHT22;2320;51.362;6.946;2024-02-21T10:44:30;11.20;99.90
4615;DHT22;2320;51.362;6.946;2024-02-21T10:46:57;11.30;99.90
4615;DHT22;2320;51.362;6.946;2024-02-21T10:49:24;11.30;99.90
4615;DHT22;2320;51.362;6.946;2024-02-21T10:51:59;11.40;99.90
4615;DHT22;2320;51.362;6.946;2024-02-21T10:57:00;11.60;99.90
4615;DHT22;2320;51.362;6.946;2024-02-21T10:59:28;11.70;99.90
4615;DHT22;2320;51.362;6.946;2024-02-21T11:01:55;11.50;99.90
4615;DHT22;2320;51.362;6.946;2024-02-21T11:04:21;11.50;99.90
4615;DHT22;2320;51.362;6.946;2024-02-21T11:06:47;11.60;99.90
4615;DHT22;2320;51.362;6.946;2024-02-21T11:09:13;11.70;99.90
4615;DHT22;2320;51.362;6.946;2024-02-21T11:11:41;11.90;99.90
4615;DHT22;2320;51.362;6.946;2024-02-21T11:14:09;11.90;99.90
4615;DHT22;2320;51.362;6.946;2024-02-21T11:16:39;11.80;99.90
4615;DHT22;2320;51.362;6.946;2024-02-21T11:19:18;11.90;99.90
4615;DHT22;2320;51.362;6.946;2024-02-21T11:21:44;12.00;99.90
4615;DHT22;2320;51.362;6.946;2024-02-21T11:24:09;12.10;99.90
4615;DHT22;2320;51.362;6.946;2024-02-21T11:26:37;12.40;99.90
4615;DHT22;2320;51.362;6.946;2024-02-21T11:29:03;12.40;99.90
4615;DHT22;2320;51.362;6.946;2024-02-21T11:31:40;12.30;99.90
4615;DHT22;2320;51.362;6.946;2024-02-21T11:34:10;12.20;99.90
4615;DHT22;2320;51.362;6.946;2024-02-21T11:36:45;12.00;99.90
4615;DHT22;2320;51.362;6.946;2024-02-21T11:39:11;12.10;99.90
4615;DHT22;2320;51.362;6.946;2024-02-21T11:41:37;12.10;99.90
4615;DHT22;2320;51.362;6.946;2024-02-21T11:44:02;12.20;99.90
4615;DHT22;2320;51.362;6.946;2024-02-21T11:46:29;12.30;99.90
4615;DHT22;2320;51.362;6.946;2024-02-21T11:48:55;12.50;99.90
4615;DHT22;2320;51.362;6.946;2024-02-21T11:51:24;12.40;99.90
4615;DHT22;2320;51.362;6.946;2024-02-21T11:53:51;12.50;99.90
4615;DHT22;2320;51.362;6.946;2024-02-21T11:56:16;12.50;99.90
4615;DHT22;2320;51.362;6.946;2024-02-21T11:58:42;12.40;99.90
4615;DHT22;2320;51.362;6.946;2024-02-21T12:01:08;12.40;99.90
4615;DHT22;2320;51.362;6.946;2024-02-21T12:03:34;12.40;99.90
4615;DHT22;2320;51.362;6.946;2024-02-21T12:06:01;12.60;99.90
4615;DHT22;2320;51.362;6.946;2024-02-21T12:08:40;12.70;99.90
4615;DHT22;2320;51.362;6.946;2024-02-21T12:11:22;12.80;99.90
4615;DHT22;2320;51.362;6.946;2024-02-21T12:13:58;12.40;99.90
4615;DHT22;2320;51.362;6.946;2024-02-21T12:16:26;12.30;99.90
4615;DHT22;2320;51.362;6.946;2024-02-21T12:18:53;12.20;99.90
4615;DHT22;2320;51.362;6.946;2024-02-21T12:21:19;12.00;99.90
4615;DHT22;2320;51.362;6.946;2024-02-21T12:23:44;12.00;99.90
4615;DHT22;2320;51.362;6.946;2024-02-21T12:26:12;12.00;99.90
4615;DHT22;2320;51.362;6.946;2024-02-21T12:28:37;11.90;99.90
4615;DHT22;2320;51.362;6.946;2024-02-21T12:31:03;12.10;99.90
4615;DHT22;2320;51.362;6.946;2024-02-21T12:33:29;12.10;99.90
4615;DHT22;2320;51.362;6.946;2024-02-21T12:35:55;12.40;99.90
4615;DHT22;2320;51.362;6.946;2024-02-21T12:38:21;12.60;99.90
4615;DHT22;2320;51.362;6.946;2024-02-21T12:40:46;12.70;99.90
4615;DHT22;2320;51.362;6.946;2024-02-21T12:43:12;12.80;99.90
4615;DHT22;2320;51.362;6.946;2024-02-21T12:45:37;12.90;99.90
4615;DHT22;2320;51.362;6.946;2024-02-21T12:48:03;12.90;99.90
4615;DHT22;2320;51.362;6.946;2024-02-21T12:50:29;13.00;99.90
4615;DHT22;2320;51.362;6.946;2024-02-21T12:52:56;12.90;99.90
4615;DHT22;2320;51.362;6.946;2024-02-21T12:55:23;12.80;99.90
4615;DHT22;2320;51.362;6.946;2024-02-21T12:57:49;12.80;99.90
4615;DHT22;2320;51.362;6.946;2024-02-21T13:00:15;12.80;99.90
4615;DHT22;2320;51.362;6.946;2024-02-21T13:02:41;12.90;99.90
4615;DHT22;2320;51.362;6.946;2024-02-21T13:05:06;13.00;99.90
4615;DHT22;2320;51.362;6.946;2024-02-21T13:07:33;13.00;99.90
4615;DHT22;2320;51.362;6.946;2024-02-21T13:09:58;12.90;99.90
4615;DHT22;2320;51.362;6.946;2024-02-21T13:12:25;12.80;99.90
4615;DHT22;2320;51.362;6.946;2024-02-21T13:14:51;12.80;99.90
4615;DHT22;2320;51.362;6.946;2024-02-21T13:17:17;12.80;99.90
4615;DHT22;2320;51.362;6.946;2024-02-21T13:19:42;12.80;99.90
4615;DHT22;2320;51.362;6.946;2024-02-21T13:22:08;13.00;99.90
4615;DHT22;2320;51.362;6.946;2024-02-21T13:24:34;12.90;99.90
4615;DHT22;2320;51.362;6.946;2024-02-21T13:26:59;12.70;99.90
4615;DHT22;2320;51.362;6.946;2024-02-21T13:29:25;12.80;99.90
4615;DHT22;2320;51.362;6.946;2024-02-21T13:31:50;12.90;99.90
4615;DHT22;2320;51.362;6.946;2024-02-21T13:34:16;12.90;99.90
4615;DHT22;2320;51.362;6.946;2024-02-21T13:36:42;12.90;99.90
4615;DHT22;2320;51.362;6.946;2024-02-21T13:39:08;13.00;99.90
4615;DHT22;2320;51.362;6.946;2024-02-21T13:41:34;13.00;99.90
4615;DHT22;2320;51.362;6.946;2024-02-21T13:44:00;12.90;99.90
4615;DHT22;2320;51.362;6.946;2024-02-21T13:46:26;12.90;99.90
4615;DHT22;2320;51.362;6.946;2024-02-21T13:49:01;12.80;99.90
4615;DHT22;2320;51.362;6.946;2024-02-21T13:51:28;12.80;99.90
4615;DHT22;2320;51.362;6.946;2024-02-21T13:53:54;12.70;99.90
4615;DHT22;2320;51.362;6.946;2024-02-21T13:56:19;12.60;99.90
4615;DHT22;2320;51.362;6.946;2024-02-21T13:58:45;12.60;99.90
4615;DHT22;2320;51.362;6.946;2024-02-21T14:01:10;12.60;99.90
4615;DHT22;2320;51.362;6.946;2024-02-21T14:03:36;12.60;99.90
4615;DHT22;2320;51.362;6.946;2024-02-21T14:06:01;12.70;99.90
4615;DHT22;2320;51.362;6.946;2024-02-21T14:08:27;12.60;99.90
4615;DHT22;2320;51.362;6.946;2024-02-21T14:10:53;12.50;99.90
4615;DHT22;2320;51.362;6.946;2024-02-21T14:13:21;12.50;99.90
4615;DHT22;2320;51.362;6.946;2024-02-21T14:15:46;12.60;99.90
4615;DHT22;2320;51.362;6.946;2024-02-21T14:18:13;12.60;99.90
4615;DHT22;2320;51.362;6.946;2024-02-21T14:20:39;12.70;99.90
4615;DHT22;2320;51.362;6.946;2024-02-21T14:23:04;12.70;99.90
4615;DHT22;2320;51.362;6.946;2024-02-21T14:25:30;12.80;99.90
4615;DHT22;2320;51.362;6.946;2024-02-21T14:27:56;12.60;99.90
4615;DHT22;2320;51.362;6.946;2024-02-21T14:30:21;12.80;99.90
4615;DHT22;2320;51.362;6.946;2024-02-21T14:32:47;12.70;99.90
4615;DHT22;2320;51.362;6.946;2024-02-21T14:35:12;12.70;99.90
4615;DHT22;2320;51.362;6.946;2024-02-21T14:37:38;12.70;99.90
4615;DHT22;2320;51.362;6.946;2024-02-21T14:40:04;12.70;99.90
4615;DHT22;2320;51.362;6.946;2024-02-21T14:42:29;12.60;99.90
4615;DHT22;2320;51.362;6.946;2024-02-21T14:44:55;12.60;99.90
4615;DHT22;2320;51.362;6.946;2024-02-21T14:47:30;12.60;99.90
4615;DHT22;2320;51.362;6.946;2024-02-21T14:49:55;12.50;99.90
4615;DHT22;2320;51.362;6.946;2024-02-21T14:52:21;12.30;99.90
4615;DHT22;2320;51.362;6.946;2024-02-21T14:54:47;12.30;99.90
4615;DHT22;2320;51.362;6.946;2024-02-21T14:57:17;12.20;99.90
4615;DHT22;2320;51.362;6.946;2024-02-21T14:59:42;12.20;99.90
4615;DHT22;2320;51.362;6.946;2024-02-21T15:02:08;12.30;99.90
4615;DHT22;2320;51.362;6.946;2024-02-21T15:04:34;12.30;99.90
4615;DHT22;2320;51.362;6.946;2024-02-21T15:07:01;12.30;99.90
4615;DHT22;2320;51.362;6.946;2024-02-21T15:09:27;12.40;99.90
4615;DHT22;2320;51.362;6.946;2024-02-21T15:11:53;12.30;99.90
4615;DHT22;2320;51.362;6.946;2024-02-21T15:14:19;12.30;99.90
4615;DHT22;2320;51.362;6.946;2024-02-21T15:16:45;12.30;99.90
4615;DHT22;2320;51.362;6.946;2024-02-21T15:19:11;12.20;99.90
4615;DHT22;2320;51.362;6.946;2024-02-21T15:21:37;12.10;99.90
4615;DHT22;2320;51.362;6.946;2024-02-21T15:24:02;12.10;99.90
4615;DHT22;2320;51.362;6.946;2024-02-21T15:26:29;12.10;99.90
4615;DHT22;2320;51.362;6.946;2024-02-21T15:28:55;12.10;99.90
4615;DHT22;2320;51.362;6.946;2024-02-21T15:31:24;12.10;99.90
4615;DHT22;2320;51.362;6.946;2024-02-21T15:33:52;12.10;99.90
4615;DHT22;2320;51.362;6.946;2024-02-21T15:36:17;12.20;99.90
4615;DHT22;2320;51.362;6.946;2024-02-21T15:38:44;12.30;99.90
4615;DHT22;2320;51.362;6.946;2024-02-21T15:41:13;12.20;99.90
4615;DHT22;2320;51.362;6.946;2024-02-21T15:43:39;12.20;99.90
4615;DHT22;2320;51.362;6.946;2024-02-21T15:46:05;12.10;99.90
4615;DHT22;2320;51.362;6.946;2024-02-21T15:48:31;12.10;99.90
4615;DHT22;2320;51.362;6.946;2024-02-21T15:51:00;12.00;99.90
4615;DHT22;2320;51.362;6.946;2024-02-21T15:53:25;11.90;99.90
4615;DHT22;2320;51.362;6.946;2024-02-21T15:55:51;11.90;99.90
4615;DHT22;2320;51.362;6.946;2024-02-21T15:58:16;11.80;99.90
4615;DHT22;2320;51.362;6.946;2024-02-21T16:00:45;11.80;99.90
4615;DHT22;2320;51.362;6.946;2024-02-21T16:03:10;11.90;99.90
4615;DHT22;2320;51.362;6.946;2024-02-21T16:05:36;11.90;99.90
4615;DHT22;2320;51.362;6.946;2024-02-21T16:08:01;11.90;99.90